sensor_id;sensor_type;location;lat;lon;timestamp;noise_LAeq;noise_LA_min;noise_LA_max;noise_LA01;noise_LA95
67398;Laerm;57728;50.448;18.824;2023-07-29T00:01:36;34.03;32.76;36.28;;
67398;Laerm;57728;50.448;18.824;2023-07-29T00:03:37;34.00;32.80;36.44;;
67398;Laerm;57728;50.448;18.824;2023-07-29T00:05:40;34.02;32.81;36.63;;
67398;Laerm;57728;50.448;18.824;2023-07-29T00:07:42;34.03;32.75;36.20;;
67398;Laerm;57728;50.448;18.824;2023-07-29T00:09:45;34.29;32.78;36.50;;
67398;Laerm;57728;50.448;18.824;2023-07-29T00:11:46;34.43;32.83;37.69;;
67398;Laerm;57728;50.448;18.824;2023-07-29T00:13:48;34.00;32.71;36.40;;
67398;Laerm;57728;50.448;18.824;2023-07-29T00:15:54;33.99;32.89;37.30;;
67398;Laerm;57728;50.448;18.824;2023-07-29T00:17:56;34.02;32.64;36.72;;
67398;Laerm;57728;50.448;18.824;2023-07-29T00:19:58;35.70;32.65;43.56;;
67398;Laerm;57728;50.448;18.824;2023-07-29T00:21:59;34.01;32.74;36.33;;
67398;Laerm;57728;50.448;18.824;2023-07-29T00:24:00;34.06;32.80;36.58;;
67398;Laerm;57728;50.448;18.824;2023-07-29T00:26:02;33.98;32.86;37.00;;
67398;Laerm;57728;50.448;18.824;2023-07-29T00:28:04;33.99;32.72;36.86;;
67398;Laerm;57728;50.448;18.824;2023-07-29T00:30:06;33.97;32.74;36.60;;
67398;Laerm;57728;50.448;18.824;2023-07-29T00:32:08;34.00;32.56;36.66;;
67398;Laerm;57728;50.448;18.824;2023-07-29T00:34:09;34.00;32.81;36.39;;
67398;Laerm;57728;50.448;18.824;2023-07-29T00:36:10;33.99;32.70;36.29;;
67398;Laerm;57728;50.448;18.824;2023-07-29T00:38:12;34.00;32.76;36.12;;
67398;Laerm;57728;50.448;18.824;2023-07-29T00:40:21;34.00;32.87;36.80;;
67398;Laerm;57728;50.448;18.824;2023-07-29T00:42:22;33.99;32.69;36.33;;
67398;Laerm;57728;50.448;18.824;2023-07-29T00:44:24;34.22;32.78;36.98;;
67398;Laerm;57728;50.448;18.824;2023-07-29T00:46:28;34.00;32.84;36.31;;
67398;Laerm;57728;50.448;18.824;2023-07-29T00:48:29;34.00;32.84;36.59;;
67398;Laerm;57728;50.448;18.824;2023-07-29T00:50:32;34.01;32.86;36.82;;
67398;Laerm;57728;50.448;18.824;2023-07-29T00:52:35;33.99;32.54;36.36;;
67398;Laerm;57728;50.448;18.824;2023-07-29T00:54:36;34.00;32.65;36.96;;
67398;Laerm;57728;50.448;18.824;2023-07-29T00:56:40;34.06;32.71;36.33;;
67398;Laerm;57728;50.448;18.824;2023-07-29T00:58:42;34.00;32.90;36.69;;
67398;Laerm;57728;50.448;18.824;2023-07-29T01:00:43;34.05;32.79;37.23;;
67398;Laerm;57728;50.448;18.824;2023-07-29T01:02:45;34.01;32.72;36.88;;
67398;Laerm;57728;50.448;18.824;2023-07-29T01:04:58;34.00;32.89;36.57;;
67398;Laerm;57728;50.448;18.824;2023-07-29T01:07:15;34.01;32.68;36.64;;
67398;Laerm;57728;50.448;18.824;2023-07-29T01:09:36;34.02;32.84;36.53;;
67398;Laerm;57728;50.448;18.824;2023-07-29T01:11:57;34.02;32.79;36.58;;
67398;Laerm;57728;50.448;18.824;2023-07-29T01:14:21;34.00;32.82;36.71;;
67398;Laerm;57728;50.448;18.824;2023-07-29T01:16:47;34.00;32.73;37.46;;
67398;Laerm;57728;50.448;18.824;2023-07-29T01:18:55;34.00;32.82;36.81;;
67398;Laerm;57728;50.448;18.824;2023-07-29T01:21:04;34.00;32.75;36.55;;
67398;Laerm;57728;50.448;18.824;2023-07-29T01:23:08;34.00;32.78;36.55;;
67398;Laerm;57728;50.448;18.824;2023-07-29T01:25:11;34.01;32.67;37.00;;
67398;Laerm;57728;50.448;18.824;2023-07-29T01:27:12;34.02;32.78;36.66;;
67398;Laerm;57728;50.448;18.824;2023-07-29T01:29:13;34.02;32.86;36.21;;
67398;Laerm;57728;50.448;18.824;2023-07-29T01:31:42;34.02;32.78;36.64;;
67398;Laerm;57728;50.448;18.824;2023-07-29T01:33:57;34.03;32.68;36.31;;
67398;Laerm;57728;50.448;18.824;2023-07-29T01:36:08;34.04;32.79;36.67;;
67398;Laerm;57728;50.448;18.824;2023-07-29T01:38:33;34.03;32.92;36.81;;
67398;Laerm;57728;50.448;18.824;2023-07-29T01:40:36;34.03;32.88;36.37;;
67398;Laerm;57728;50.448;18.824;2023-07-29T01:42:38;34.04;32.81;36.34;;
67398;Laerm;57728;50.448;18.824;2023-07-29T01:44:40;34.03;32.68;36.05;;
67398;Laerm;57728;50.448;18.824;2023-07-29T01:46:44;34.03;32.74;36.16;;
67398;Laerm;57728;50.448;18.824;2023-07-29T01:48:45;34.02;32.90;36.63;;
67398;Laerm;57728;50.448;18.824;2023-07-29T01:50:49;34.12;32.85;41.11;;
67398;Laerm;57728;50.448;18.824;2023-07-29T01:52:50;34.01;32.77;36.61;;
67398;Laerm;57728;50.448;18.824;2023-07-29T01:54:51;34.01;32.81;36.51;;
67398;Laerm;57728;50.448;18.824;2023-07-29T01:56:53;34.07;32.69;36.80;;
67398;Laerm;57728;50.448;18.824;2023-07-29T01:58:54;34.00;32.72;36.43;;
67398;Laerm;57728;50.448;18.824;2023-07-29T02:00:56;34.01;32.57;36.38;;
67398;Laerm;57728;50.448;18.824;2023-07-29T02:02:57;34.01;32.83;36.05;;
67398;Laerm;57728;50.448;18.824;2023-07-29T02:05:05;34.01;32.79;36.48;;
67398;Laerm;57728;50.448;18.824;2023-07-29T02:07:06;34.01;32.73;36.37;;
67398;Laerm;57728;50.448;18.824;2023-07-29T02:09:08;34.01;32.75;36.30;;
67398;Laerm;57728;50.448;18.824;2023-07-29T02:11:09;34.00;32.84;36.38;;
67398;Laerm;57728;50.448;18.824;2023-07-29T02:13:11;34.01;32.89;36.71;;
67398;Laerm;57728;50.448;18.824;2023-07-29T02:15:13;34.04;32.88;36.56;;
67398;Laerm;57728;50.448;18.824;2023-07-29T02:17:14;34.02;32.69;36.98;;
67398;Laerm;57728;50.448;18.824;2023-07-29T02:19:16;34.00;32.85;36.63;;
67398;Laerm;57728;50.448;18.824;2023-07-29T02:21:17;33.99;32.64;36.59;;
67398;Laerm;57728;50.448;18.824;2023-07-29T02:23:19;34.01;32.85;36.42;;
67398;Laerm;57728;50.448;18.824;2023-07-29T02:25:20;34.00;32.96;36.75;;
67398;Laerm;57728;50.448;18.824;2023-07-29T02:27:22;33.97;32.85;36.11;;
67398;Laerm;57728;50.448;18.824;2023-07-29T02:29:23;34.00;32.71;35.90;;
67398;Laerm;57728;50.448;18.824;2023-07-29T02:31:25;33.97;32.76;36.39;;
67398;Laerm;57728;50.448;18.824;2023-07-29T02:33:27;33.98;32.72;36.94;;
67398;Laerm;57728;50.448;18.824;2023-07-29T02:35:28;33.99;32.83;40.36;;
67398;Laerm;57728;50.448;18.824;2023-07-29T02:37:30;33.98;32.79;36.44;;
67398;Laerm;57728;50.448;18.824;2023-07-29T02:39:32;33.98;32.72;36.73;;
67398;Laerm;57728;50.448;18.824;2023-07-29T02:41:33;33.97;32.66;36.22;;
67398;Laerm;57728;50.448;18.824;2023-07-29T02:43:35;33.97;32.83;36.17;;
67398;Laerm;57728;50.448;18.824;2023-07-29T02:45:38;34.20;32.73;38.87;;
67398;Laerm;57728;50.448;18.824;2023-07-29T02:47:39;33.99;32.85;36.43;;
67398;Laerm;57728;50.448;18.824;2023-07-29T02:49:40;33.99;32.83;36.74;;
67398;Laerm;57728;50.448;18.824;2023-07-29T02:51:42;34.11;32.77;40.95;;
67398;Laerm;57728;50.448;18.824;2023-07-29T02:53:43;34.02;32.77;36.50;;
67398;Laerm;57728;50.448;18.824;2023-07-29T02:55:44;34.00;32.82;36.36;;
67398;Laerm;57728;50.448;18.824;2023-07-29T02:57:48;34.00;32.82;36.93;;
67398;Laerm;57728;50.448;18.824;2023-07-29T02:59:49;34.05;32.86;36.93;;
67398;Laerm;57728;50.448;18.824;2023-07-29T03:01:50;34.01;32.46;37.12;;
67398;Laerm;57728;50.448;18.824;2023-07-29T03:03:52;34.14;32.83;38.53;;
67398;Laerm;57728;50.448;18.824;2023-07-29T03:06:03;34.39;32.84;39.01;;
67398;Laerm;57728;50.448;18.824;2023-07-29T03:08:04;34.39;32.81;42.38;;
67398;Laerm;57728;50.448;18.824;2023-07-29T03:10:07;34.67;32.94;40.23;;
67398;Laerm;57728;50.448;18.824;2023-07-29T03:12:08;34.47;32.94;40.00;;
67398;Laerm;57728;50.448;18.824;2023-07-29T03:14:09;34.56;32.86;44.97;;
67398;Laerm;57728;50.448;18.824;2023-07-29T03:16:17;34.25;32.92;41.70;;
67398;Laerm;57728;50.448;18.824;2023-07-29T03:18:24;34.21;32.81;45.02;;
67398;Laerm;57728;50.448;18.824;2023-07-29T03:20:25;34.19;32.88;47.35;;
67398;Laerm;57728;50.448;18.824;2023-07-29T03:22:27;34.36;32.89;45.72;;
67398;Laerm;57728;50.448;18.824;2023-07-29T03:24:28;34.22;32.71;43.30;;
67398;Laerm;57728;50.448;18.824;2023-07-29T03:26:30;34.09;32.85;43.04;;
67398;Laerm;57728;50.448;18.824;2023-07-29T03:28:33;34.15;32.73;38.22;;
67398;Laerm;57728;50.448;18.824;2023-07-29T03:30:34;34.13;32.77;40.24;;
67398;Laerm;57728;50.448;18.824;2023-07-29T03:32:39;34.31;32.76;39.28;;
67398;Laerm;57728;50.448;18.824;2023-07-29T03:34:41;34.18;32.77;48.97;;
67398;Laerm;57728;50.448;18.824;2023-07-29T03:36:42;34.07;32.75;36.52;;
67398;Laerm;57728;50.448;18.824;2023-07-29T03:38:43;34.13;32.81;42.05;;
67398;Laerm;57728;50.448;18.824;2023-07-29T03:40:46;34.09;32.64;41.39;;
67398;Laerm;57728;50.448;18.824;2023-07-29T03:42:48;34.10;32.87;43.03;;
67398;Laerm;57728;50.448;18.824;2023-07-29T03:44:50;34.17;32.74;41.05;;
67398;Laerm;57728;50.448;18.824;2023-07-29T03:46:52;34.12;32.88;41.84;;
67398;Laerm;57728;50.448;18.824;2023-07-29T03:48:53;34.10;32.92;37.22;;
67398;Laerm;57728;50.448;18.824;2023-07-29T03:50:54;34.13;32.93;42.92;;
67398;Laerm;57728;50.448;18.824;2023-07-29T03:52:56;34.10;32.89;37.16;;
67398;Laerm;57728;50.448;18.824;2023-07-29T03:54:57;34.19;32.88;45.68;;
67398;Laerm;57728;50.448;18.824;2023-07-29T03:56:58;34.22;32.91;45.92;;
67398;Laerm;57728;50.448;18.824;2023-07-29T03:59:05;34.22;32.72;37.20;;
67398;Laerm;57728;50.448;18.824;2023-07-29T04:01:07;34.28;32.92;45.81;;
67398;Laerm;57728;50.448;18.824;2023-07-29T04:03:08;34.23;32.92;44.75;;
67398;Laerm;57728;50.448;18.824;2023-07-29T04:05:11;34.24;32.86;41.50;;
67398;Laerm;57728;50.448;18.824;2023-07-29T04:07:13;34.22;32.75;44.50;;
67398;Laerm;57728;50.448;18.824;2023-07-29T04:09:14;34.10;32.81;36.66;;
67398;Laerm;57728;50.448;18.824;2023-07-29T04:11:16;34.23;32.67;44.09;;
67398;Laerm;57728;50.448;18.824;2023-07-29T04:13:17;35.64;32.99;42.77;;
67398;Laerm;57728;50.448;18.824;2023-07-29T04:15:18;34.19;32.81;45.90;;
67398;Laerm;57728;50.448;18.824;2023-07-29T04:17:20;34.13;32.75;44.27;;
67398;Laerm;57728;50.448;18.824;2023-07-29T04:19:21;34.30;32.90;43.79;;
67398;Laerm;57728;50.448;18.824;2023-07-29T04:21:23;34.20;33.02;42.85;;
67398;Laerm;57728;50.448;18.824;2023-07-29T04:23:25;36.73;33.06;45.71;;
67398;Laerm;57728;50.448;18.824;2023-07-29T04:25:26;34.40;33.10;38.90;;
67398;Laerm;57728;50.448;18.824;2023-07-29T04:27:29;34.33;32.85;39.97;;
67398;Laerm;57728;50.448;18.824;2023-07-29T04:29:31;34.18;32.86;36.91;;
67398;Laerm;57728;50.448;18.824;2023-07-29T04:31:32;34.47;32.96;40.93;;
67398;Laerm;57728;50.448;18.824;2023-07-29T04:33:33;34.31;33.09;38.31;;
67398;Laerm;57728;50.448;18.824;2023-07-29T04:35:35;36.55;33.00;45.46;;
67398;Laerm;57728;50.448;18.824;2023-07-29T04:37:37;34.16;32.97;36.28;;
67398;Laerm;57728;50.448;18.824;2023-07-29T04:39:38;34.22;32.98;43.52;;
67398;Laerm;57728;50.448;18.824;2023-07-29T04:41:40;34.29;32.85;38.22;;
67398;Laerm;57728;50.448;18.824;2023-07-29T04:43:41;34.31;32.95;46.54;;
67398;Laerm;57728;50.448;18.824;2023-07-29T04:45:44;34.24;32.90;40.90;;
67398;Laerm;57728;50.448;18.824;2023-07-29T04:47:46;34.14;32.73;36.23;;
67398;Laerm;57728;50.448;18.824;2023-07-29T04:49:47;34.17;32.93;41.89;;
67398;Laerm;57728;50.448;18.824;2023-07-29T04:51:48;34.33;32.94;39.13;;
67398;Laerm;57728;50.448;18.824;2023-07-29T04:53:50;34.22;32.98;39.05;;
67398;Laerm;57728;50.448;18.824;2023-07-29T04:55:51;34.20;32.88;38.28;;
67398;Laerm;57728;50.448;18.824;2023-07-29T04:57:52;34.19;32.72;37.39;;
67398;Laerm;57728;50.448;18.824;2023-07-29T04:59:54;34.58;32.86;47.14;;
67398;Laerm;57728;50.448;18.824;2023-07-29T05:01:55;34.26;32.84;37.79;;
67398;Laerm;57728;50.448;18.824;2023-07-29T05:03:57;34.37;32.46;44.62;;
67398;Laerm;57728;50.448;18.824;2023-07-29T05:05:59;34.31;32.87;42.26;;
67398;Laerm;57728;50.448;18.824;2023-07-29T05:08:02;34.40;33.04;42.25;;
67398;Laerm;57728;50.448;18.824;2023-07-29T05:10:03;34.24;32.71;41.60;;
67398;Laerm;57728;50.448;18.824;2023-07-29T05:12:06;34.32;32.76;43.59;;
67398;Laerm;57728;50.448;18.824;2023-07-29T05:14:07;34.24;32.51;38.29;;
67398;Laerm;57728;50.448;18.824;2023-07-29T05:16:10;34.27;32.78;40.58;;
67398;Laerm;57728;50.448;18.824;2023-07-29T05:18:12;34.44;32.88;49.60;;
67398;Laerm;57728;50.448;18.824;2023-07-29T05:20:13;34.32;32.96;40.56;;
67398;Laerm;57728;50.448;18.824;2023-07-29T05:22:14;34.29;32.41;38.14;;
67398;Laerm;57728;50.448;18.824;2023-07-29T05:24:16;37.36;33.01;51.94;;
67398;Laerm;57728;50.448;18.824;2023-07-29T05:26:17;35.86;32.91;44.08;;
67398;Laerm;57728;50.448;18.824;2023-07-29T05:28:18;34.41;33.13;40.48;;
67398;Laerm;57728;50.448;18.824;2023-07-29T05:30:20;34.45;33.12;39.60;;
67398;Laerm;57728;50.448;18.824;2023-07-29T05:32:22;34.61;32.94;38.27;;
67398;Laerm;57728;50.448;18.824;2023-07-29T05:34:23;35.66;32.93;53.62;;
67398;Laerm;57728;50.448;18.824;2023-07-29T05:36:25;34.55;32.87;38.99;;
67398;Laerm;57728;50.448;18.824;2023-07-29T05:38:26;34.69;33.08;45.61;;
67398;Laerm;57728;50.448;18.824;2023-07-29T05:40:27;35.54;33.14;52.89;;
67398;Laerm;57728;50.448;18.824;2023-07-29T05:42:29;34.81;32.93;41.07;;
67398;Laerm;57728;50.448;18.824;2023-07-29T05:44:30;34.65;33.05;44.95;;
67398;Laerm;57728;50.448;18.824;2023-07-29T05:46:32;34.55;33.06;43.63;;
67398;Laerm;57728;50.448;18.824;2023-07-29T05:48:33;34.54;32.99;48.72;;
67398;Laerm;57728;50.448;18.824;2023-07-29T05:50:34;34.42;33.05;39.73;;
67398;Laerm;57728;50.448;18.824;2023-07-29T05:52:37;34.51;32.68;38.27;;
67398;Laerm;57728;50.448;18.824;2023-07-29T05:54:39;34.45;33.06;38.89;;
67398;Laerm;57728;50.448;18.824;2023-07-29T05:56:40;34.33;32.90;40.29;;
67398;Laerm;57728;50.448;18.824;2023-07-29T05:58:43;34.45;32.93;39.89;;
67398;Laerm;57728;50.448;18.824;2023-07-29T06:00:46;34.44;32.96;37.83;;
67398;Laerm;57728;50.448;18.824;2023-07-29T06:02:47;34.57;33.17;42.25;;
67398;Laerm;57728;50.448;18.824;2023-07-29T06:04:51;35.71;32.94;42.24;;
67398;Laerm;57728;50.448;18.824;2023-07-29T06:06:53;34.39;32.79;45.25;;
67398;Laerm;57728;50.448;18.824;2023-07-29T06:08:56;34.65;33.27;44.75;;
67398;Laerm;57728;50.448;18.824;2023-07-29T06:10:57;34.69;32.94;51.98;;
67398;Laerm;57728;50.448;18.824;2023-07-29T06:12:59;34.55;33.20;42.01;;
67398;Laerm;57728;50.448;18.824;2023-07-29T06:15:00;35.76;33.31;51.54;;
67398;Laerm;57728;50.448;18.824;2023-07-29T06:17:02;34.66;33.21;43.84;;
67398;Laerm;57728;50.448;18.824;2023-07-29T06:19:04;36.27;32.66;53.02;;
67398;Laerm;57728;50.448;18.824;2023-07-29T06:21:05;34.50;33.08;38.54;;
67398;Laerm;57728;50.448;18.824;2023-07-29T06:23:09;34.66;32.99;47.03;;
67398;Laerm;57728;50.448;18.824;2023-07-29T06:25:11;34.61;33.16;46.09;;
67398;Laerm;57728;50.448;18.824;2023-07-29T06:27:13;34.75;32.92;39.93;;
67398;Laerm;57728;50.448;18.824;2023-07-29T06:29:14;34.52;32.94;46.36;;
67398;Laerm;57728;50.448;18.824;2023-07-29T06:31:16;34.54;32.99;45.04;;
67398;Laerm;57728;50.448;18.824;2023-07-29T06:33:17;34.54;33.15;39.37;;
67398;Laerm;57728;50.448;18.824;2023-07-29T06:35:18;34.50;32.99;39.06;;
67398;Laerm;57728;50.448;18.824;2023-07-29T06:37:20;34.53;33.07;38.53;;
67398;Laerm;57728;50.448;18.824;2023-07-29T06:39:21;34.56;32.95;43.28;;
67398;Laerm;57728;50.448;18.824;2023-07-29T06:41:22;35.03;33.21;43.10;;
67398;Laerm;57728;50.448;18.824;2023-07-29T06:43:25;35.09;33.08;47.36;;
67398;Laerm;57728;50.448;18.824;2023-07-29T06:45:26;34.57;32.97;39.54;;
67398;Laerm;57728;50.448;18.824;2023-07-29T06:47:27;34.52;32.91;38.32;;
67398;Laerm;57728;50.448;18.824;2023-07-29T06:49:29;34.63;32.92;38.39;;
67398;Laerm;57728;50.448;18.824;2023-07-29T06:51:30;34.63;33.14;43.98;;
67398;Laerm;57728;50.448;18.824;2023-07-29T06:53:35;34.60;33.17;46.42;;
67398;Laerm;57728;50.448;18.824;2023-07-29T06:55:37;34.66;33.19;41.21;;
67398;Laerm;57728;50.448;18.824;2023-07-29T06:57:38;35.52;33.23;46.55;;
67398;Laerm;57728;50.448;18.824;2023-07-29T06:59:39;34.56;33.05;38.46;;
67398;Laerm;57728;50.448;18.824;2023-07-29T07:01:41;34.46;33.01;36.40;;
67398;Laerm;57728;50.448;18.824;2023-07-29T07:03:42;34.49;33.13;37.75;;
67398;Laerm;57728;50.448;18.824;2023-07-29T07:05:43;34.63;33.21;38.72;;
67398;Laerm;57728;50.448;18.824;2023-07-29T07:07:45;34.46;33.10;40.91;;
67398;Laerm;57728;50.448;18.824;2023-07-29T07:09:46;34.63;33.23;40.20;;
67398;Laerm;57728;50.448;18.824;2023-07-29T07:11:47;34.79;33.27;40.57;;
67398;Laerm;57728;50.448;18.824;2023-07-29T07:13:49;35.59;33.17;49.00;;
67398;Laerm;57728;50.448;18.824;2023-07-29T07:15:50;35.25;33.26;44.71;;
67398;Laerm;57728;50.448;18.824;2023-07-29T07:17:51;35.95;33.49;51.47;;
67398;Laerm;57728;50.448;18.824;2023-07-29T07:19:53;35.84;33.48;46.03;;
67398;Laerm;57728;50.448;18.824;2023-07-29T07:21:54;34.66;33.14;38.68;;
67398;Laerm;57728;50.448;18.824;2023-07-29T07:23:55;35.31;33.30;47.72;;
67398;Laerm;57728;50.448;18.824;2023-07-29T07:25:57;34.58;33.03;41.41;;
67398;Laerm;57728;50.448;18.824;2023-07-29T07:27:58;34.54;33.21;42.18;;
67398;Laerm;57728;50.448;18.824;2023-07-29T07:30:00;34.72;33.14;50.14;;
67398;Laerm;57728;50.448;18.824;2023-07-29T07:32:02;36.15;33.21;53.55;;
67398;Laerm;57728;50.448;18.824;2023-07-29T07:34:03;34.82;33.25;46.65;;
67398;Laerm;57728;50.448;18.824;2023-07-29T07:36:04;34.64;33.28;37.46;;
67398;Laerm;57728;50.448;18.824;2023-07-29T07:38:06;35.56;33.08;49.88;;
67398;Laerm;57728;50.448;18.824;2023-07-29T07:40:09;34.86;33.36;43.42;;
67398;Laerm;57728;50.448;18.824;2023-07-29T07:42:10;34.86;33.36;42.04;;
67398;Laerm;57728;50.448;18.824;2023-07-29T07:44:13;34.88;33.33;47.28;;
67398;Laerm;57728;50.448;18.824;2023-07-29T07:46:16;36.69;33.42;48.22;;
67398;Laerm;57728;50.448;18.824;2023-07-29T07:48:17;35.15;33.29;42.78;;
67398;Laerm;57728;50.448;18.824;2023-07-29T07:50:19;38.35;33.49;48.86;;
67398;Laerm;57728;50.448;18.824;2023-07-29T07:52:20;34.72;33.21;45.04;;
67398;Laerm;57728;50.448;18.824;2023-07-29T07:54:21;34.83;33.43;42.68;;
67398;Laerm;57728;50.448;18.824;2023-07-29T07:56:23;35.14;33.16;43.89;;
67398;Laerm;57728;50.448;18.824;2023-07-29T07:58:24;34.72;33.38;37.76;;
67398;Laerm;57728;50.448;18.824;2023-07-29T08:00:25;34.73;33.23;38.66;;
67398;Laerm;57728;50.448;18.824;2023-07-29T08:02:27;34.58;33.03;37.67;;
67398;Laerm;57728;50.448;18.824;2023-07-29T08:04:28;34.54;33.03;39.19;;
67398;Laerm;57728;50.448;18.824;2023-07-29T08:06:30;34.53;33.06;45.06;;
67398;Laerm;57728;50.448;18.824;2023-07-29T08:08:32;34.64;32.95;50.99;;
67398;Laerm;57728;50.448;18.824;2023-07-29T08:10:33;35.22;33.39;43.89;;
67398;Laerm;57728;50.448;18.824;2023-07-29T08:12:35;35.01;33.27;44.60;;
67398;Laerm;57728;50.448;18.824;2023-07-29T08:14:36;35.22;33.22;44.22;;
67398;Laerm;57728;50.448;18.824;2023-07-29T08:16:38;34.50;33.01;36.87;;
67398;Laerm;57728;50.448;18.824;2023-07-29T08:18:39;34.63;33.19;43.28;;
67398;Laerm;57728;50.448;18.824;2023-07-29T08:20:41;34.54;33.30;38.54;;
67398;Laerm;57728;50.448;18.824;2023-07-29T08:22:42;34.74;33.11;40.75;;
67398;Laerm;57728;50.448;18.824;2023-07-29T08:24:43;34.63;33.22;43.05;;
67398;Laerm;57728;50.448;18.824;2023-07-29T08:26:45;35.01;33.24;45.39;;
67398;Laerm;57728;50.448;18.824;2023-07-29T08:28:46;35.16;33.12;46.88;;
67398;Laerm;57728;50.448;18.824;2023-07-29T08:30:47;34.69;33.12;43.62;;
67398;Laerm;57728;50.448;18.824;2023-07-29T08:32:49;34.42;32.98;43.78;;
67398;Laerm;57728;50.448;18.824;2023-07-29T08:34:51;35.39;33.07;47.42;;
67398;Laerm;57728;50.448;18.824;2023-07-29T08:36:52;34.44;32.86;38.69;;
67398;Laerm;57728;50.448;18.824;2023-07-29T08:38:53;34.74;33.01;51.26;;
67398;Laerm;57728;50.448;18.824;2023-07-29T08:41:16;34.74;32.97;45.59;;
67398;Laerm;57728;50.448;18.824;2023-07-29T08:43:29;34.27;32.96;39.68;;
67398;Laerm;57728;50.448;18.824;2023-07-29T08:45:39;34.28;32.97;41.72;;
67398;Laerm;57728;50.448;18.824;2023-07-29T08:47:40;44.54;33.17;64.30;;
67398;Laerm;57728;50.448;18.824;2023-07-29T08:49:43;34.97;32.83;47.26;;
67398;Laerm;57728;50.448;18.824;2023-07-29T08:51:47;34.29;32.93;43.25;;
67398;Laerm;57728;50.448;18.824;2023-07-29T08:53:52;34.18;32.86;39.75;;
67398;Laerm;57728;50.448;18.824;2023-07-29T08:55:54;34.31;33.07;39.47;;
67398;Laerm;57728;50.448;18.824;2023-07-29T08:58:00;34.34;33.01;43.82;;
67398;Laerm;57728;50.448;18.824;2023-07-29T09:00:02;34.78;32.90;43.73;;
67398;Laerm;57728;50.448;18.824;2023-07-29T09:02:03;35.34;33.35;46.90;;
67398;Laerm;57728;50.448;18.824;2023-07-29T09:04:09;34.84;32.86;50.91;;
67398;Laerm;57728;50.448;18.824;2023-07-29T09:06:13;34.68;33.39;38.78;;
67398;Laerm;57728;50.448;18.824;2023-07-29T09:08:15;34.66;33.23;43.04;;
67398;Laerm;57728;50.448;18.824;2023-07-29T09:10:22;34.46;33.14;39.75;;
67398;Laerm;57728;50.448;18.824;2023-07-29T09:12:24;35.06;33.11;45.09;;
67398;Laerm;57728;50.448;18.824;2023-07-29T09:14:26;35.40;33.28;43.93;;
67398;Laerm;57728;50.448;18.824;2023-07-29T09:16:30;34.66;33.23;42.34;;
67398;Laerm;57728;50.448;18.824;2023-07-29T09:18:31;34.49;32.92;40.02;;
67398;Laerm;57728;50.448;18.824;2023-07-29T09:20:33;34.49;33.17;42.58;;
67398;Laerm;57728;50.448;18.824;2023-07-29T09:22:35;34.60;33.13;38.48;;
67398;Laerm;57728;50.448;18.824;2023-07-29T09:24:37;35.50;33.25;45.79;;
67398;Laerm;57728;50.448;18.824;2023-07-29T09:26:38;35.08;33.20;45.32;;
67398;Laerm;57728;50.448;18.824;2023-07-29T09:28:42;38.17;33.15;54.25;;
67398;Laerm;57728;50.448;18.824;2023-07-29T09:30:46;34.56;33.19;40.10;;
67398;Laerm;57728;50.448;18.824;2023-07-29T09:32:47;34.25;32.80;38.77;;
67398;Laerm;57728;50.448;18.824;2023-07-29T09:34:49;34.24;32.94;40.89;;
67398;Laerm;57728;50.448;18.824;2023-07-29T09:36:50;34.60;32.93;47.97;;
67398;Laerm;57728;50.448;18.824;2023-07-29T09:38:54;34.69;33.06;39.56;;
67398;Laerm;57728;50.448;18.824;2023-07-29T09:40:57;35.86;33.18;47.33;;
67398;Laerm;57728;50.448;18.824;2023-07-29T09:42:59;34.71;33.01;41.05;;
67398;Laerm;57728;50.448;18.824;2023-07-29T09:45:00;35.09;33.32;41.27;;
67398;Laerm;57728;50.448;18.824;2023-07-29T09:47:02;35.10;33.36;44.30;;
67398;Laerm;57728;50.448;18.824;2023-07-29T09:49:06;34.81;33.17;44.32;;
67398;Laerm;57728;50.448;18.824;2023-07-29T09:51:12;34.67;32.99;44.19;;
67398;Laerm;57728;50.448;18.824;2023-07-29T09:53:15;35.05;32.98;44.41;;
67398;Laerm;57728;50.448;18.824;2023-07-29T09:55:22;34.87;33.05;51.29;;
67398;Laerm;57728;50.448;18.824;2023-07-29T09:57:27;34.65;32.83;48.32;;
67398;Laerm;57728;50.448;18.824;2023-07-29T09:59:34;34.80;32.84;46.95;;
67398;Laerm;57728;50.448;18.824;2023-07-29T10:01:36;34.23;32.93;39.23;;
67398;Laerm;57728;50.448;18.824;2023-07-29T10:03:38;34.91;32.94;49.76;;
67398;Laerm;57728;50.448;18.824;2023-07-29T10:05:40;34.79;32.80;47.90;;
67398;Laerm;57728;50.448;18.824;2023-07-29T10:07:42;34.89;32.71;48.59;;
67398;Laerm;57728;50.448;18.824;2023-07-29T10:09:45;34.41;32.77;47.06;;
67398;Laerm;57728;50.448;18.824;2023-07-29T10:11:47;34.10;32.65;38.61;;
67398;Laerm;57728;50.448;18.824;2023-07-29T10:13:51;34.12;32.67;40.03;;
67398;Laerm;57728;50.448;18.824;2023-07-29T10:15:54;35.02;32.72;51.55;;
67398;Laerm;57728;50.448;18.824;2023-07-29T10:17:57;34.22;32.65;47.16;;
67398;Laerm;57728;50.448;18.824;2023-07-29T10:19:59;34.68;32.53;43.00;;
67398;Laerm;57728;50.448;18.824;2023-07-29T10:22:03;35.36;32.78;48.81;;
67398;Laerm;57728;50.448;18.824;2023-07-29T10:24:18;34.16;32.72;42.64;;
67398;Laerm;57728;50.448;18.824;2023-07-29T10:26:28;34.03;32.80;41.05;;
67398;Laerm;57728;50.448;18.824;2023-07-29T10:28:32;34.61;32.71;47.83;;
67398;Laerm;57728;50.448;18.824;2023-07-29T10:30:34;35.64;33.00;53.03;;
67398;Laerm;57728;50.448;18.824;2023-07-29T10:32:38;35.84;32.98;42.83;;
67398;Laerm;57728;50.448;18.824;2023-07-29T10:34:40;34.48;32.66;49.17;;
67398;Laerm;57728;50.448;18.824;2023-07-29T10:36:45;34.20;32.51;39.03;;
67398;Laerm;57728;50.448;18.824;2023-07-29T10:38:47;34.39;32.82;44.17;;
67398;Laerm;57728;50.448;18.824;2023-07-29T10:40:56;37.25;32.82;56.43;;
67398;Laerm;57728;50.448;18.824;2023-07-29T10:43:15;35.04;32.86;47.89;;
67398;Laerm;57728;50.448;18.824;2023-07-29T10:45:21;35.23;32.89;49.91;;
67398;Laerm;57728;50.448;18.824;2023-07-29T10:47:23;34.42;32.66;43.17;;
67398;Laerm;57728;50.448;18.824;2023-07-29T10:49:27;34.69;32.95;45.55;;
67398;Laerm;57728;50.448;18.824;2023-07-29T10:51:37;36.02;32.69;48.85;;
67398;Laerm;57728;50.448;18.824;2023-07-29T10:53:38;34.38;32.81;41.00;;
67398;Laerm;57728;50.448;18.824;2023-07-29T10:55:40;34.76;32.59;48.03;;
67398;Laerm;57728;50.448;18.824;2023-07-29T10:57:45;35.13;32.91;47.41;;
67398;Laerm;57728;50.448;18.824;2023-07-29T10:59:56;34.33;32.67;43.50;;
67398;Laerm;57728;50.448;18.824;2023-07-29T11:02:00;34.67;32.79;44.57;;
67398;Laerm;57728;50.448;18.824;2023-07-29T11:06:21;34.24;32.82;42.43;;
67398;Laerm;57728;50.448;18.824;2023-07-29T11:08:30;34.11;32.75;39.45;;
67398;Laerm;57728;50.448;18.824;2023-07-29T11:10:43;34.53;32.45;44.58;;
67398;Laerm;57728;50.448;18.824;2023-07-29T11:12:52;34.11;32.81;43.77;;
67398;Laerm;57728;50.448;18.824;2023-07-29T11:14:55;36.74;32.66;54.66;;
67398;Laerm;57728;50.448;18.824;2023-07-29T11:16:57;34.68;32.87;44.13;;
67398;Laerm;57728;50.448;18.824;2023-07-29T11:19:01;34.55;32.83;49.56;;
67398;Laerm;57728;50.448;18.824;2023-07-29T11:21:04;36.05;32.74;50.78;;